Terminal Aerodrome Forecast
Issued by NWS Cleveland, OH

Home | Current Version | Previous Version | Graphics & Text | Print | Product List | Glossary On
Versions: 1 2 3 4 5 6 7 8 9 10 11 12 13 14 15
000
FTUS41 KCLE 171300 AAA
TAFERI
TAF AMD
KERI 171302Z 1713/1812 25005KT 2SM BR OVC009
      TEMPO 1713/1715 1/4SM FG VV002
     FM171500 27007KT P6SM SCT008 OVC012
     FM171900 26008KT P6SM SCT020
     FM180100 22005KT P6SM SKC=

USA.gov is the U.S. government's official web portal to all federal, state and local government web resources and services.